Standish, Michigan
Current Conditions -  °F | °C
As of 7:31 PM on Saturday 25 Oct 2014 (Local Time) from KIKW Reporting Station
Clear Clear  
Wind Chill: 58°   Ceiling: Unl
Heat Index: 58°   Visibility: 10mi
Dew Point: 31°   Wind: 8mph
Humidity: 36%   Direction: 280°W
Pressure: 29.76"   Gusts: NA
Location:  43.98°N, 83.96°W
Report Text: KIKW 252331Z AUTO 28007KT 10SM CLR 14/M01 A2976 RMK AO2 T01441006
Loading
Personal Weather Stations






























Interactive Weather Map New forecast layout! Learn more

10-Day Weather Forecast

Advertisements
Track Severe Weather on mobile